sensor_id;sensor_type;location;lat;lon;timestamp;P1;durP1;ratioP1;P2;durP2;ratioP2
58470;SDS011;44258;51.288;12.068;2023-11-22T00:00:19;13.27;;;4.65;;
58470;SDS011;44258;51.288;12.068;2023-11-22T00:02:47;13.75;;;6.25;;
58470;SDS011;44258;51.288;12.068;2023-11-22T00:05:13;12.82;;;4.50;;
58470;SDS011;44258;51.288;12.068;2023-11-22T00:07:40;14.90;;;5.57;;
58470;SDS011;44258;51.288;12.068;2023-11-22T00:10:07;16.92;;;6.50;;
58470;SDS011;44258;51.288;12.068;2023-11-22T00:12:35;13.98;;;5.60;;
58470;SDS011;44258;51.288;12.068;2023-11-22T00:15:05;10.73;;;4.55;;
58470;SDS011;44258;51.288;12.068;2023-11-22T00:17:34;12.60;;;4.63;;
58470;SDS011;44258;51.288;12.068;2023-11-22T00:20:02;16.05;;;5.57;;
58470;SDS011;44258;51.288;12.068;2023-11-22T00:22:33;13.93;;;5.72;;
58470;SDS011;44258;51.288;12.068;2023-11-22T00:25:01;16.30;;;6.72;;
58470;SDS011;44258;51.288;12.068;2023-11-22T00:27:28;10.25;;;2.90;;
58470;SDS011;44258;51.288;12.068;2023-11-22T00:29:58;13.15;;;4.07;;
58470;SDS011;44258;51.288;12.068;2023-11-22T00:32:31;11.60;;;3.90;;
58470;SDS011;44258;51.288;12.068;2023-11-22T00:34:58;11.93;;;4.47;;
58470;SDS011;44258;51.288;12.068;2023-11-22T00:37:27;12.90;;;5.45;;
58470;SDS011;44258;51.288;12.068;2023-11-22T00:39:53;7.88;;;3.30;;
58470;SDS011;44258;51.288;12.068;2023-11-22T00:42:20;11.30;;;3.72;;
58470;SDS011;44258;51.288;12.068;2023-11-22T00:44:48;16.77;;;6.30;;
58470;SDS011;44258;51.288;12.068;2023-11-22T00:47:15;11.98;;;4.72;;
58470;SDS011;44258;51.288;12.068;2023-11-22T00:49:43;11.50;;;4.10;;
58470;SDS011;44258;51.288;12.068;2023-11-22T00:52:10;15.23;;;5.20;;
58470;SDS011;44258;51.288;12.068;2023-11-22T00:54:38;11.88;;;4.72;;
58470;SDS011;44258;51.288;12.068;2023-11-22T00:57:05;18.77;;;6.60;;
58470;SDS011;44258;51.288;12.068;2023-11-22T00:59:33;12.15;;;5.00;;
58470;SDS011;44258;51.288;12.068;2023-11-22T01:02:04;14.25;;;6.00;;
58470;SDS011;44258;51.288;12.068;2023-11-22T01:04:31;14.23;;;4.57;;
58470;SDS011;44258;51.288;12.068;2023-11-22T01:07:02;11.43;;;4.53;;
58470;SDS011;44258;51.288;12.068;2023-11-22T01:09:30;13.95;;;5.13;;
58470;SDS011;44258;51.288;12.068;2023-11-22T01:11:57;16.83;;;6.40;;
58470;SDS011;44258;51.288;12.068;2023-11-22T01:14:24;14.68;;;5.78;;
58470;SDS011;44258;51.288;12.068;2023-11-22T01:16:51;16.33;;;6.70;;
58470;SDS011;44258;51.288;12.068;2023-11-22T01:19:18;13.85;;;4.75;;
58470;SDS011;44258;51.288;12.068;2023-11-22T01:21:46;13.02;;;4.88;;
58470;SDS011;44258;51.288;12.068;2023-11-22T01:24:15;15.20;;;5.55;;
58470;SDS011;44258;51.288;12.068;2023-11-22T01:26:42;10.57;;;4.70;;
58470;SDS011;44258;51.288;12.068;2023-11-22T01:29:09;10.57;;;3.85;;
58470;SDS011;44258;51.288;12.068;2023-11-22T01:31:37;13.43;;;5.15;;
58470;SDS011;44258;51.288;12.068;2023-11-22T01:34:04;11.88;;;4.40;;
58470;SDS011;44258;51.288;12.068;2023-11-22T01:36:31;14.60;;;5.72;;
58470;SDS011;44258;51.288;12.068;2023-11-22T01:38:58;15.43;;;5.50;;
58470;SDS011;44258;51.288;12.068;2023-11-22T01:41:26;16.13;;;4.82;;
58470;SDS011;44258;51.288;12.068;2023-11-22T01:43:55;12.05;;;4.75;;
58470;SDS011;44258;51.288;12.068;2023-11-22T01:46:23;7.53;;;3.63;;
58470;SDS011;44258;51.288;12.068;2023-11-22T01:48:51;13.73;;;5.40;;
58470;SDS011;44258;51.288;12.068;2023-11-22T01:51:21;8.80;;;3.75;;
58470;SDS011;44258;51.288;12.068;2023-11-22T01:53:51;16.48;;;5.20;;
58470;SDS011;44258;51.288;12.068;2023-11-22T01:56:21;7.65;;;3.60;;
58470;SDS011;44258;51.288;12.068;2023-11-22T01:58:53;15.40;;;6.32;;
58470;SDS011;44258;51.288;12.068;2023-11-22T02:01:21;15.07;;;5.10;;
58470;SDS011;44258;51.288;12.068;2023-11-22T02:03:49;12.65;;;4.63;;
58470;SDS011;44258;51.288;12.068;2023-11-22T02:06:17;14.93;;;5.43;;
58470;SDS011;44258;51.288;12.068;2023-11-22T02:08:44;10.52;;;4.43;;
58470;SDS011;44258;51.288;12.068;2023-11-22T02:11:11;12.88;;;4.75;;
58470;SDS011;44258;51.288;12.068;2023-11-22T02:13:38;15.82;;;6.00;;
58470;SDS011;44258;51.288;12.068;2023-11-22T02:16:06;15.45;;;4.88;;
58470;SDS011;44258;51.288;12.068;2023-11-22T02:18:33;17.23;;;6.15;;
58470;SDS011;44258;51.288;12.068;2023-11-22T02:21:02;11.07;;;3.83;;
58470;SDS011;44258;51.288;12.068;2023-11-22T02:23:30;10.10;;;4.25;;
58470;SDS011;44258;51.288;12.068;2023-11-22T02:25:57;20.17;;;6.93;;
58470;SDS011;44258;51.288;12.068;2023-11-22T02:28:26;7.82;;;3.28;;
58470;SDS011;44258;51.288;12.068;2023-11-22T02:30:53;11.02;;;4.03;;
58470;SDS011;44258;51.288;12.068;2023-11-22T02:33:20;11.30;;;4.30;;
58470;SDS011;44258;51.288;12.068;2023-11-22T02:35:47;9.93;;;3.85;;
58470;SDS011;44258;51.288;12.068;2023-11-22T02:38:14;11.18;;;4.20;;
58470;SDS011;44258;51.288;12.068;2023-11-22T02:40:44;6.72;;;2.78;;
58470;SDS011;44258;51.288;12.068;2023-11-22T02:43:11;13.07;;;4.75;;
58470;SDS011;44258;51.288;12.068;2023-11-22T02:45:38;14.45;;;5.65;;
58470;SDS011;44258;51.288;12.068;2023-11-22T02:48:04;7.80;;;3.60;;
58470;SDS011;44258;51.288;12.068;2023-11-22T02:50:34;9.80;;;3.63;;
58470;SDS011;44258;51.288;12.068;2023-11-22T02:53:02;9.10;;;3.55;;
58470;SDS011;44258;51.288;12.068;2023-11-22T02:55:29;13.85;;;4.35;;
58470;SDS011;44258;51.288;12.068;2023-11-22T02:57:58;14.40;;;4.68;;
58470;SDS011;44258;51.288;12.068;2023-11-22T03:00:25;12.60;;;4.40;;
58470;SDS011;44258;51.288;12.068;2023-11-22T03:02:52;14.50;;;5.00;;
58470;SDS011;44258;51.288;12.068;2023-11-22T03:05:19;10.52;;;4.72;;
58470;SDS011;44258;51.288;12.068;2023-11-22T03:07:47;10.02;;;3.70;;
58470;SDS011;44258;51.288;12.068;2023-11-22T03:10:16;8.07;;;2.72;;
58470;SDS011;44258;51.288;12.068;2023-11-22T03:12:46;8.90;;;3.40;;
58470;SDS011;44258;51.288;12.068;2023-11-22T03:15:16;12.13;;;5.32;;
58470;SDS011;44258;51.288;12.068;2023-11-22T03:17:44;12.02;;;3.60;;
58470;SDS011;44258;51.288;12.068;2023-11-22T03:20:13;12.70;;;4.72;;
58470;SDS011;44258;51.288;12.068;2023-11-22T03:22:41;9.48;;;3.28;;
58470;SDS011;44258;51.288;12.068;2023-11-22T03:25:16;12.32;;;4.07;;
58470;SDS011;44258;51.288;12.068;2023-11-22T03:27:43;10.15;;;3.30;;
58470;SDS011;44258;51.288;12.068;2023-11-22T03:30:13;8.38;;;3.67;;
58470;SDS011;44258;51.288;12.068;2023-11-22T03:32:42;6.47;;;2.17;;
58470;SDS011;44258;51.288;12.068;2023-11-22T03:35:09;8.15;;;3.55;;
58470;SDS011;44258;51.288;12.068;2023-11-22T03:37:37;8.15;;;3.08;;
58470;SDS011;44258;51.288;12.068;2023-11-22T03:40:04;10.70;;;3.95;;
58470;SDS011;44258;51.288;12.068;2023-11-22T03:42:32;12.10;;;4.25;;
58470;SDS011;44258;51.288;12.068;2023-11-22T03:44:58;9.90;;;4.05;;
58470;SDS011;44258;51.288;12.068;2023-11-22T03:47:26;9.73;;;3.80;;
58470;SDS011;44258;51.288;12.068;2023-11-22T03:49:53;9.95;;;3.80;;
58470;SDS011;44258;51.288;12.068;2023-11-22T03:52:20;7.32;;;3.10;;
58470;SDS011;44258;51.288;12.068;2023-11-22T03:54:47;12.65;;;4.43;;
58470;SDS011;44258;51.288;12.068;2023-11-22T03:57:14;11.63;;;4.07;;
58470;SDS011;44258;51.288;12.068;2023-11-22T03:59:42;8.32;;;2.67;;
58470;SDS011;44258;51.288;12.068;2023-11-22T04:02:09;6.25;;;3.63;;
58470;SDS011;44258;51.288;12.068;2023-11-22T04:04:37;11.90;;;4.63;;
58470;SDS011;44258;51.288;12.068;2023-11-22T04:07:06;12.40;;;4.25;;
58470;SDS011;44258;51.288;12.068;2023-11-22T04:09:33;6.63;;;2.00;;
58470;SDS011;44258;51.288;12.068;2023-11-22T04:12:00;11.45;;;3.90;;
58470;SDS011;44258;51.288;12.068;2023-11-22T04:14:27;10.18;;;4.03;;
58470;SDS011;44258;51.288;12.068;2023-11-22T04:16:53;10.88;;;4.40;;
58470;SDS011;44258;51.288;12.068;2023-11-22T04:19:22;13.00;;;4.93;;
58470;SDS011;44258;51.288;12.068;2023-11-22T04:21:50;10.80;;;3.92;;
58470;SDS011;44258;51.288;12.068;2023-11-22T04:24:19;14.32;;;4.10;;
58470;SDS011;44258;51.288;12.068;2023-11-22T04:26:49;7.90;;;3.22;;
58470;SDS011;44258;51.288;12.068;2023-11-22T04:29:15;11.70;;;4.43;;
58470;SDS011;44258;51.288;12.068;2023-11-22T04:31:43;11.98;;;4.22;;
58470;SDS011;44258;51.288;12.068;2023-11-22T04:34:09;13.32;;;5.00;;
58470;SDS011;44258;51.288;12.068;2023-11-22T04:36:37;11.63;;;3.75;;
58470;SDS011;44258;51.288;12.068;2023-11-22T04:39:05;11.18;;;3.53;;
58470;SDS011;44258;51.288;12.068;2023-11-22T04:41:33;13.15;;;4.40;;
58470;SDS011;44258;51.288;12.068;2023-11-22T04:44:01;9.18;;;2.97;;
58470;SDS011;44258;51.288;12.068;2023-11-22T04:46:28;5.30;;;2.28;;
58470;SDS011;44258;51.288;12.068;2023-11-22T04:48:56;7.65;;;2.40;;
58470;SDS011;44258;51.288;12.068;2023-11-22T04:51:23;6.85;;;3.03;;
58470;SDS011;44258;51.288;12.068;2023-11-22T04:53:50;10.48;;;3.33;;
58470;SDS011;44258;51.288;12.068;2023-11-22T04:56:18;6.90;;;2.40;;
58470;SDS011;44258;51.288;12.068;2023-11-22T04:58:45;9.10;;;3.40;;
58470;SDS011;44258;51.288;12.068;2023-11-22T05:01:13;10.57;;;3.75;;
58470;SDS011;44258;51.288;12.068;2023-11-22T05:03:39;12.43;;;5.07;;
58470;SDS011;44258;51.288;12.068;2023-11-22T05:06:07;13.27;;;4.68;;
58470;SDS011;44258;51.288;12.068;2023-11-22T05:08:33;10.80;;;3.80;;
58470;SDS011;44258;51.288;12.068;2023-11-22T05:11:00;12.60;;;4.63;;
58470;SDS011;44258;51.288;12.068;2023-11-22T05:13:29;13.10;;;4.30;;
58470;SDS011;44258;51.288;12.068;2023-11-22T05:15:56;15.98;;;4.20;;
58470;SDS011;44258;51.288;12.068;2023-11-22T05:18:22;13.80;;;4.07;;
58470;SDS011;44258;51.288;12.068;2023-11-22T05:20:50;12.77;;;4.05;;
58470;SDS011;44258;51.288;12.068;2023-11-22T05:23:17;12.68;;;4.00;;
58470;SDS011;44258;51.288;12.068;2023-11-22T05:25:44;13.65;;;4.47;;
58470;SDS011;44258;51.288;12.068;2023-11-22T05:28:11;9.25;;;3.80;;
58470;SDS011;44258;51.288;12.068;2023-11-22T05:30:40;10.80;;;4.05;;
58470;SDS011;44258;51.288;12.068;2023-11-22T05:33:07;12.73;;;4.63;;
58470;SDS011;44258;51.288;12.068;2023-11-22T05:35:34;11.32;;;4.00;;
58470;SDS011;44258;51.288;12.068;2023-11-22T05:38:01;17.52;;;6.00;;
58470;SDS011;44258;51.288;12.068;2023-11-22T05:40:28;14.88;;;5.80;;
58470;SDS011;44258;51.288;12.068;2023-11-22T05:42:55;10.50;;;4.53;;
58470;SDS011;44258;51.288;12.068;2023-11-22T05:45:22;14.48;;;4.90;;
58470;SDS011;44258;51.288;12.068;2023-11-22T05:47:50;13.80;;;4.47;;
58470;SDS011;44258;51.288;12.068;2023-11-22T05:50:18;16.23;;;6.15;;
58470;SDS011;44258;51.288;12.068;2023-11-22T05:52:45;9.10;;;3.60;;
58470;SDS011;44258;51.288;12.068;2023-11-22T05:55:13;10.25;;;3.67;;
58470;SDS011;44258;51.288;12.068;2023-11-22T05:57:40;10.85;;;4.07;;
58470;SDS011;44258;51.288;12.068;2023-11-22T06:00:07;11.10;;;3.92;;
58470;SDS011;44258;51.288;12.068;2023-11-22T06:02:35;12.18;;;4.20;;
58470;SDS011;44258;51.288;12.068;2023-11-22T06:05:04;7.90;;;2.75;;
58470;SDS011;44258;51.288;12.068;2023-11-22T06:07:32;6.90;;;2.70;;
58470;SDS011;44258;51.288;12.068;2023-11-22T06:09:58;11.57;;;4.43;;
58470;SDS011;44258;51.288;12.068;2023-11-22T06:12:27;8.02;;;2.45;;
58470;SDS011;44258;51.288;12.068;2023-11-22T06:14:56;14.98;;;4.20;;
58470;SDS011;44258;51.288;12.068;2023-11-22T06:17:23;14.98;;;4.70;;
58470;SDS011;44258;51.288;12.068;2023-11-22T06:19:51;9.00;;;2.33;;
58470;SDS011;44258;51.288;12.068;2023-11-22T06:22:20;7.90;;;2.80;;
58470;SDS011;44258;51.288;12.068;2023-11-22T06:24:47;12.23;;;5.25;;
58470;SDS011;44258;51.288;12.068;2023-11-22T06:27:13;9.52;;;3.85;;
58470;SDS011;44258;51.288;12.068;2023-11-22T06:29:41;16.30;;;4.75;;
58470;SDS011;44258;51.288;12.068;2023-11-22T06:32:08;11.45;;;3.70;;
58470;SDS011;44258;51.288;12.068;2023-11-22T06:34:35;12.60;;;3.83;;
58470;SDS011;44258;51.288;12.068;2023-11-22T06:37:02;14.23;;;5.00;;
58470;SDS011;44258;51.288;12.068;2023-11-22T06:39:31;9.70;;;4.10;;
58470;SDS011;44258;51.288;12.068;2023-11-22T06:41:58;12.00;;;3.75;;
58470;SDS011;44258;51.288;12.068;2023-11-22T06:44:25;5.57;;;1.88;;
58470;SDS011;44258;51.288;12.068;2023-11-22T06:46:53;16.00;;;4.28;;
58470;SDS011;44258;51.288;12.068;2023-11-22T06:49:20;12.90;;;4.70;;
58470;SDS011;44258;51.288;12.068;2023-11-22T06:51:46;10.40;;;3.35;;
58470;SDS011;44258;51.288;12.068;2023-11-22T06:54:13;12.45;;;4.72;;
58470;SDS011;44258;51.288;12.068;2023-11-22T06:56:41;13.23;;;4.78;;
58470;SDS011;44258;51.288;12.068;2023-11-22T06:59:08;10.23;;;3.17;;
58470;SDS011;44258;51.288;12.068;2023-11-22T07:01:36;8.57;;;2.85;;
58470;SDS011;44258;51.288;12.068;2023-11-22T07:04:04;10.10;;;3.70;;
58470;SDS011;44258;51.288;12.068;2023-11-22T07:06:32;5.55;;;2.30;;
58470;SDS011;44258;51.288;12.068;2023-11-22T07:08:59;11.73;;;3.95;;
58470;SDS011;44258;51.288;12.068;2023-11-22T07:11:26;13.18;;;4.75;;
58470;SDS011;44258;51.288;12.068;2023-11-22T07:13:57;9.32;;;3.53;;
58470;SDS011;44258;51.288;12.068;2023-11-22T07:16:23;13.77;;;4.68;;
58470;SDS011;44258;51.288;12.068;2023-11-22T07:18:50;13.52;;;4.53;;
58470;SDS011;44258;51.288;12.068;2023-11-22T07:21:17;14.40;;;4.75;;
58470;SDS011;44258;51.288;12.068;2023-11-22T07:23:45;9.80;;;3.72;;
58470;SDS011;44258;51.288;12.068;2023-11-22T07:26:13;12.25;;;3.95;;
58470;SDS011;44258;51.288;12.068;2023-11-22T07:28:41;13.15;;;4.38;;
58470;SDS011;44258;51.288;12.068;2023-11-22T07:31:09;12.32;;;4.13;;
58470;SDS011;44258;51.288;12.068;2023-11-22T07:33:37;9.65;;;3.53;;
58470;SDS011;44258;51.288;12.068;2023-11-22T07:36:04;14.07;;;4.90;;
58470;SDS011;44258;51.288;12.068;2023-11-22T07:38:32;10.75;;;3.35;;
58470;SDS011;44258;51.288;12.068;2023-11-22T07:40:59;12.60;;;4.63;;
58470;SDS011;44258;51.288;12.068;2023-11-22T07:43:26;13.23;;;4.70;;
58470;SDS011;44258;51.288;12.068;2023-11-22T07:45:53;12.02;;;4.38;;
58470;SDS011;44258;51.288;12.068;2023-11-22T07:48:21;14.57;;;5.32;;
58470;SDS011;44258;51.288;12.068;2023-11-22T07:50:49;8.20;;;3.50;;
58470;SDS011;44258;51.288;12.068;2023-11-22T07:53:17;8.85;;;3.42;;
58470;SDS011;44258;51.288;12.068;2023-11-22T07:55:43;10.07;;;2.83;;
58470;SDS011;44258;51.288;12.068;2023-11-22T07:58:11;10.52;;;4.43;;
58470;SDS011;44258;51.288;12.068;2023-11-22T08:00:37;15.07;;;6.07;;
58470;SDS011;44258;51.288;12.068;2023-11-22T08:03:07;13.65;;;5.15;;
58470;SDS011;44258;51.288;12.068;2023-11-22T08:05:35;7.00;;;3.03;;
58470;SDS011;44258;51.288;12.068;2023-11-22T08:08:05;4.25;;;1.90;;
58470;SDS011;44258;51.288;12.068;2023-11-22T08:10:33;9.70;;;3.25;;
58470;SDS011;44258;51.288;12.068;2023-11-22T08:13:00;6.38;;;1.70;;
58470;SDS011;44258;51.288;12.068;2023-11-22T08:15:27;11.73;;;3.97;;
58470;SDS011;44258;51.288;12.068;2023-11-22T08:17:55;15.63;;;4.85;;
58470;SDS011;44258;51.288;12.068;2023-11-22T08:20:22;11.98;;;4.00;;
58470;SDS011;44258;51.288;12.068;2023-11-22T08:22:51;9.07;;;3.05;;
58470;SDS011;44258;51.288;12.068;2023-11-22T08:25:19;9.45;;;3.70;;
58470;SDS011;44258;51.288;12.068;2023-11-22T08:27:48;12.00;;;4.72;;
58470;SDS011;44258;51.288;12.068;2023-11-22T08:30:14;11.63;;;4.43;;
58470;SDS011;44258;51.288;12.068;2023-11-22T08:32:41;11.52;;;4.38;;
58470;SDS011;44258;51.288;12.068;2023-11-22T08:35:09;13.60;;;5.28;;
58470;SDS011;44258;51.288;12.068;2023-11-22T08:37:39;16.45;;;5.63;;
58470;SDS011;44258;51.288;12.068;2023-11-22T08:40:09;16.42;;;6.15;;
58470;SDS011;44258;51.288;12.068;2023-11-22T08:42:39;7.43;;;3.47;;
58470;SDS011;44258;51.288;12.068;2023-11-22T08:45:07;14.68;;;5.38;;
58470;SDS011;44258;51.288;12.068;2023-11-22T08:47:40;13.40;;;4.18;;
58470;SDS011;44258;51.288;12.068;2023-11-22T08:50:07;7.18;;;3.47;;
58470;SDS011;44258;51.288;12.068;2023-11-22T08:52:36;6.40;;;2.53;;
58470;SDS011;44258;51.288;12.068;2023-11-22T08:55:08;14.02;;;5.13;;
58470;SDS011;44258;51.288;12.068;2023-11-22T08:57:35;13.85;;;5.53;;
58470;SDS011;44258;51.288;12.068;2023-11-22T09:00:03;17.08;;;6.63;;
58470;SDS011;44258;51.288;12.068;2023-11-22T09:02:34;5.93;;;2.63;;
58470;SDS011;44258;51.288;12.068;2023-11-22T09:05:01;6.35;;;2.80;;
58470;SDS011;44258;51.288;12.068;2023-11-22T09:07:30;7.30;;;2.90;;
58470;SDS011;44258;51.288;12.068;2023-11-22T09:10:04;11.93;;;4.90;;
58470;SDS011;44258;51.288;12.068;2023-11-22T09:12:36;12.13;;;5.25;;
58470;SDS011;44258;51.288;12.068;2023-11-22T09:15:05;8.98;;;3.75;;
58470;SDS011;44258;51.288;12.068;2023-11-22T09:17:36;15.02;;;4.97;;
58470;SDS011;44258;51.288;12.068;2023-11-22T09:20:08;11.45;;;3.97;;
58470;SDS011;44258;51.288;12.068;2023-11-22T09:22:38;19.85;;;5.53;;
58470;SDS011;44258;51.288;12.068;2023-11-22T09:25:13;12.07;;;3.55;;
58470;SDS011;44258;51.288;12.068;2023-11-22T09:27:43;10.02;;;4.00;;
58470;SDS011;44258;51.288;12.068;2023-11-22T09:30:13;7.93;;;3.25;;
58470;SDS011;44258;51.288;12.068;2023-11-22T09:32:45;13.13;;;4.93;;
58470;SDS011;44258;51.288;12.068;2023-11-22T09:35:15;12.88;;;4.63;;
58470;SDS011;44258;51.288;12.068;2023-11-22T09:37:44;15.73;;;6.45;;
58470;SDS011;44258;51.288;12.068;2023-11-22T09:40:11;15.77;;;5.32;;
58470;SDS011;44258;51.288;12.068;2023-11-22T09:42:44;18.48;;;6.20;;
58470;SDS011;44258;51.288;12.068;2023-11-22T09:45:15;12.80;;;5.32;;
58470;SDS011;44258;51.288;12.068;2023-11-22T09:47:43;13.25;;;5.00;;
58470;SDS011;44258;51.288;12.068;2023-11-22T09:50:11;14.23;;;5.18;;
58470;SDS011;44258;51.288;12.068;2023-11-22T09:52:44;12.10;;;5.50;;
58470;SDS011;44258;51.288;12.068;2023-11-22T09:55:16;7.45;;;2.85;;
58470;SDS011;44258;51.288;12.068;2023-11-22T09:57:45;16.58;;;6.80;;
58470;SDS011;44258;51.288;12.068;2023-11-22T10:00:13;23.27;;;7.78;;
58470;SDS011;44258;51.288;12.068;2023-11-22T10:02:43;37.30;;;11.30;;
58470;SDS011;44258;51.288;12.068;2023-11-22T10:05:12;20.73;;;8.15;;
58470;SDS011;44258;51.288;12.068;2023-11-22T10:07:39;24.67;;;9.35;;
58470;SDS011;44258;51.288;12.068;2023-11-22T10:10:07;14.77;;;6.28;;
58470;SDS011;44258;51.288;12.068;2023-11-22T10:12:36;8.30;;;3.50;;
58470;SDS011;44258;51.288;12.068;2023-11-22T10:15:16;16.17;;;6.00;;
58470;SDS011;44258;51.288;12.068;2023-11-22T10:17:47;14.70;;;5.90;;
58470;SDS011;44258;51.288;12.068;2023-11-22T10:20:22;16.15;;;6.88;;
58470;SDS011;44258;51.288;12.068;2023-11-22T10:22:51;17.00;;;5.75;;
58470;SDS011;44258;51.288;12.068;2023-11-22T10:25:19;16.30;;;6.20;;
58470;SDS011;44258;51.288;12.068;2023-11-22T10:27:49;16.35;;;7.65;;
58470;SDS011;44258;51.288;12.068;2023-11-22T10:30:18;12.25;;;5.03;;
58470;SDS011;44258;51.288;12.068;2023-11-22T10:32:46;16.05;;;6.10;;
58470;SDS011;44258;51.288;12.068;2023-11-22T10:35:13;16.70;;;6.18;;
58470;SDS011;44258;51.288;12.068;2023-11-22T10:37:41;15.82;;;6.07;;
58470;SDS011;44258;51.288;12.068;2023-11-22T10:40:10;16.80;;;6.28;;
58470;SDS011;44258;51.288;12.068;2023-11-22T10:42:40;15.43;;;6.78;;
58470;SDS011;44258;51.288;12.068;2023-11-22T10:45:07;14.45;;;6.18;;
58470;SDS011;44258;51.288;12.068;2023-11-22T10:47:38;17.08;;;6.03;;
58470;SDS011;44258;51.288;12.068;2023-11-22T10:50:07;14.50;;;6.28;;
58470;SDS011;44258;51.288;12.068;2023-11-22T10:52:35;15.38;;;6.13;;
58470;SDS011;44258;51.288;12.068;2023-11-22T10:55:03;15.98;;;6.25;;
58470;SDS011;44258;51.288;12.068;2023-11-22T10:57:32;14.50;;;6.38;;
58470;SDS011;44258;51.288;12.068;2023-11-22T11:00:07;16.17;;;6.63;;
58470;SDS011;44258;51.288;12.068;2023-11-22T11:02:40;15.00;;;6.38;;
58470;SDS011;44258;51.288;12.068;2023-11-22T11:05:10;17.23;;;6.60;;
58470;SDS011;44258;51.288;12.068;2023-11-22T11:07:44;17.25;;;6.97;;
58470;SDS011;44258;51.288;12.068;2023-11-22T11:10:17;18.52;;;6.63;;
58470;SDS011;44258;51.288;12.068;2023-11-22T11:12:47;16.52;;;6.97;;
58470;SDS011;44258;51.288;12.068;2023-11-22T11:15:13;15.23;;;4.53;;
58470;SDS011;44258;51.288;12.068;2023-11-22T11:17:43;12.13;;;6.03;;
58470;SDS011;44258;51.288;12.068;2023-11-22T11:20:15;9.48;;;4.18;;
58470;SDS011;44258;51.288;12.068;2023-11-22T11:22:42;15.30;;;6.00;;
58470;SDS011;44258;51.288;12.068;2023-11-22T11:25:13;15.57;;;5.82;;
58470;SDS011;44258;51.288;12.068;2023-11-22T11:27:41;17.55;;;6.18;;
58470;SDS011;44258;51.288;12.068;2023-11-22T11:33:10;18.20;;;6.88;;
58470;SDS011;44258;51.288;12.068;2023-11-22T11:35:41;15.48;;;5.50;;
58470;SDS011;44258;51.288;12.068;2023-11-22T11:38:13;17.73;;;7.28;;
58470;SDS011;44258;51.288;12.068;2023-11-22T11:40:42;16.60;;;6.57;;
58470;SDS011;44258;51.288;12.068;2023-11-22T11:43:09;16.60;;;6.30;;
58470;SDS011;44258;51.288;12.068;2023-11-22T11:45:38;17.88;;;6.03;;
58470;SDS011;44258;51.288;12.068;2023-11-22T11:48:12;16.40;;;5.82;;
58470;SDS011;44258;51.288;12.068;2023-11-22T11:50:43;11.68;;;4.88;;
58470;SDS011;44258;51.288;12.068;2023-11-22T11:53:12;16.88;;;5.95;;
58470;SDS011;44258;51.288;12.068;2023-11-22T11:55:39;15.15;;;6.28;;
58470;SDS011;44258;51.288;12.068;2023-11-22T11:58:10;14.00;;;5.78;;
58470;SDS011;44258;51.288;12.068;2023-11-22T12:00:38;17.20;;;7.47;;
58470;SDS011;44258;51.288;12.068;2023-11-22T12:03:06;22.23;;;7.90;;
58470;SDS011;44258;51.288;12.068;2023-11-22T12:05:39;17.77;;;7.60;;
58470;SDS011;44258;51.288;12.068;2023-11-22T12:08:07;16.05;;;6.60;;
58470;SDS011;44258;51.288;12.068;2023-11-22T12:10:34;16.38;;;6.05;;
58470;SDS011;44258;51.288;12.068;2023-11-22T12:13:01;14.95;;;7.63;;
58470;SDS011;44258;51.288;12.068;2023-11-22T12:15:27;17.80;;;6.95;;
58470;SDS011;44258;51.288;12.068;2023-11-22T12:17:54;21.15;;;7.07;;
58470;SDS011;44258;51.288;12.068;2023-11-22T12:20:22;12.88;;;5.18;;
58470;SDS011;44258;51.288;12.068;2023-11-22T12:22:52;18.83;;;7.55;;
58470;SDS011;44258;51.288;12.068;2023-11-22T12:25:19;15.13;;;5.90;;
58470;SDS011;44258;51.288;12.068;2023-11-22T12:27:46;18.48;;;6.95;;
58470;SDS011;44258;51.288;12.068;2023-11-22T12:30:30;16.90;;;6.63;;
58470;SDS011;44258;51.288;12.068;2023-11-22T12:33:01;19.17;;;7.95;;
58470;SDS011;44258;51.288;12.068;2023-11-22T12:35:29;15.27;;;6.75;;
58470;SDS011;44258;51.288;12.068;2023-11-22T12:37:59;16.05;;;6.88;;
58470;SDS011;44258;51.288;12.068;2023-11-22T12:40:27;14.02;;;5.85;;
58470;SDS011;44258;51.288;12.068;2023-11-22T12:42:56;18.88;;;6.88;;
58470;SDS011;44258;51.288;12.068;2023-11-22T12:45:24;21.30;;;8.35;;
58470;SDS011;44258;51.288;12.068;2023-11-22T12:47:56;16.55;;;6.82;;
58470;SDS011;44258;51.288;12.068;2023-11-22T12:50:33;18.70;;;6.90;;
58470;SDS011;44258;51.288;12.068;2023-11-22T12:53:10;18.10;;;7.55;;
58470;SDS011;44258;51.288;12.068;2023-11-22T12:55:41;17.38;;;7.05;;
58470;SDS011;44258;51.288;12.068;2023-11-22T12:58:09;18.70;;;7.95;;
58470;SDS011;44258;51.288;12.068;2023-11-22T13:00:37;21.48;;;9.30;;
58470;SDS011;44258;51.288;12.068;2023-11-22T13:03:04;18.20;;;7.82;;
58470;SDS011;44258;51.288;12.068;2023-11-22T13:05:36;22.58;;;8.40;;
58470;SDS011;44258;51.288;12.068;2023-11-22T13:08:02;21.83;;;8.07;;
58470;SDS011;44258;51.288;12.068;2023-11-22T13:10:32;20.65;;;8.63;;
58470;SDS011;44258;51.288;12.068;2023-11-22T13:12:58;18.35;;;8.07;;
58470;SDS011;44258;51.288;12.068;2023-11-22T13:15:27;22.10;;;8.02;;
58470;SDS011;44258;51.288;12.068;2023-11-22T13:17:55;20.65;;;8.73;;
58470;SDS011;44258;51.288;12.068;2023-11-22T13:20:24;19.67;;;8.40;;
58470;SDS011;44258;51.288;12.068;2023-11-22T13:22:52;24.33;;;9.48;;
58470;SDS011;44258;51.288;12.068;2023-11-22T13:25:20;22.73;;;10.18;;
58470;SDS011;44258;51.288;12.068;2023-11-22T13:27:51;22.85;;;9.82;;
58470;SDS011;44258;51.288;12.068;2023-11-22T13:30:19;23.23;;;9.48;;
58470;SDS011;44258;51.288;12.068;2023-11-22T13:32:48;25.45;;;9.55;;
58470;SDS011;44258;51.288;12.068;2023-11-22T13:35:15;22.17;;;9.48;;
58470;SDS011;44258;51.288;12.068;2023-11-22T13:37:42;23.00;;;11.13;;
58470;SDS011;44258;51.288;12.068;2023-11-22T13:40:10;23.77;;;9.93;;
58470;SDS011;44258;51.288;12.068;2023-11-22T13:42:41;28.02;;;10.57;;
58470;SDS011;44258;51.288;12.068;2023-11-22T13:45:11;22.42;;;9.10;;
58470;SDS011;44258;51.288;12.068;2023-11-22T13:47:41;22.00;;;9.15;;
58470;SDS011;44258;51.288;12.068;2023-11-22T13:50:12;25.40;;;9.45;;
58470;SDS011;44258;51.288;12.068;2023-11-22T13:52:43;24.98;;;9.50;;
58470;SDS011;44258;51.288;12.068;2023-11-22T13:55:12;22.50;;;9.75;;
58470;SDS011;44258;51.288;12.068;2023-11-22T13:57:40;27.88;;;9.52;;
58470;SDS011;44258;51.288;12.068;2023-11-22T14:00:08;21.08;;;9.02;;
58470;SDS011;44258;51.288;12.068;2023-11-22T14:02:43;22.40;;;8.75;;
58470;SDS011;44258;51.288;12.068;2023-11-22T14:05:10;17.00;;;7.22;;
58470;SDS011;44258;51.288;12.068;2023-11-22T14:07:37;15.45;;;6.28;;
58470;SDS011;44258;51.288;12.068;2023-11-22T14:10:05;16.45;;;7.55;;
58470;SDS011;44258;51.288;12.068;2023-11-22T14:12:33;18.02;;;8.00;;
58470;SDS011;44258;51.288;12.068;2023-11-22T14:15:00;19.02;;;7.68;;
58470;SDS011;44258;51.288;12.068;2023-11-22T14:17:31;16.85;;;7.32;;
58470;SDS011;44258;51.288;12.068;2023-11-22T14:19:59;17.38;;;7.22;;
58470;SDS011;44258;51.288;12.068;2023-11-22T14:22:25;18.45;;;7.15;;
58470;SDS011;44258;51.288;12.068;2023-11-22T14:24:52;17.27;;;7.22;;
58470;SDS011;44258;51.288;12.068;2023-11-22T14:27:22;19.17;;;7.10;;
58470;SDS011;44258;51.288;12.068;2023-11-22T14:29:49;16.95;;;6.95;;
58470;SDS011;44258;51.288;12.068;2023-11-22T14:32:25;15.40;;;6.70;;